Kinney, Minnesota
Current Conditions -  °F | °C
As of 6:53 AM on Wednesday 22 Oct 2014 (Local Time) from KHIB Reporting Station
Clear Clear  
Wind Chill: 30°   Ceiling: Unl
Heat Index: 36°   Visibility: 10mi
Dew Point: 33°   Wind: 7mph
Humidity: 89%   Direction: 140°SE
Pressure: 30.16"   Gusts: NA
Location:  47.51°N, 92.73°W
Report Text: KHIB 221153Z AUTO 14006KT 10SM CLR 02/01 A3016 RMK AO2 SLP229 T00220006 10028 20000 51002
Loading
Personal Weather Stations






























Interactive Weather Map
Tropical Storm Tracking
New forecast layout! Learn more

10-Day Weather Forecast

Advertisements
Track Severe Weather on mobile